Terminal Aerodrome Forecast
Issued by NWS

Home | Current Version | Previous Version | Text Only | Print | Product List | Glossary On
Versions: 1 2 3 4 5 6 7 8 9 10 11 12 13 14 15 16 17 18 19 20 21
481
FTUS43 KDLH 252335
TAFBRD
TAF
KBRD 252335Z 2600/2624 28008KT P6SM VCSH SCT026 BKN035
     FM260300 29004KT P6SM BKN060
     FM260800 VRB02KT P6SM SCT060
      TEMPO 2609/2612 1 1/2SM BR SCT005
     FM261500 21006KT P6SM SCT025
     FM261800 19006KT P6SM SCT040=

USA.gov is the U.S. government's official web portal to all federal, state and local government web resources and services.